sensor_id;sensor_type;location;lat;lon;timestamp;P1;P2;P0
45312;PMS7003;68267;51.540;5.854;2023-11-22T00:02:16;14.77;16.69;15.92
45312;PMS7003;68267;51.540;5.854;2023-11-22T00:15:35;15.73;17.56;16.03
45312;PMS7003;68267;51.540;5.854;2023-11-22T00:28:55;13.21;15.27;14.62
45312;PMS7003;68267;51.540;5.854;2023-11-22T00:42:15;12.61;14.72;14.29
45312;PMS7003;68267;51.540;5.854;2023-11-22T00:55:34;13.81;15.81;14.94
45312;PMS7003;68267;51.540;5.854;2023-11-22T01:08:54;14.29;16.25;14.72
45312;PMS7003;68267;51.540;5.854;2023-11-22T01:22:14;13.69;15.71;15.05
45312;PMS7003;68267;51.540;5.854;2023-11-22T01:35:33;15.37;17.23;16.14
45312;PMS7003;68267;51.540;5.854;2023-11-22T01:48:53;14.05;16.03;15.27
45312;PMS7003;68267;51.540;5.854;2023-11-22T02:02:12;14.17;16.14;15.49
45312;PMS7003;68267;51.540;5.854;2023-11-22T02:15:35;13.81;15.81;14.94
45312;PMS7003;68267;51.540;5.854;2023-11-22T02:28:54;13.81;15.81;15.49
45312;PMS7003;68267;51.540;5.854;2023-11-22T02:42:14;13.93;15.92;14.94
45312;PMS7003;68267;51.540;5.854;2023-11-22T02:55:34;17.17;17.67;16.25
45312;PMS7003;68267;51.540;5.854;2023-11-22T03:08:53;13.45;15.49;14.94
45312;PMS7003;68267;51.540;5.854;2023-11-22T03:22:13;11.77;13.96;13.42
45312;PMS7003;68267;51.540;5.854;2023-11-22T03:35:33;12.49;14.62;13.63
45312;PMS7003;68267;51.540;5.854;2023-11-22T03:48:52;13.21;15.27;14.4
45312;PMS7003;68267;51.540;5.854;2023-11-22T04:02:12;10.69;12.98;12.33
45312;PMS7003;68267;51.540;5.854;2023-11-22T04:15:32;12.61;14.72;14.07
45312;PMS7003;68267;51.540;5.854;2023-11-22T04:28:51;15.37;17.23;15.27
45312;PMS7003;68267;51.540;5.854;2023-11-22T04:42:11;11.05;13.31;12.33
45312;PMS7003;68267;51.540;5.854;2023-11-22T04:55:30;21.73;14.07;12.76
45312;PMS7003;68267;51.540;5.854;2023-11-22T05:08:50;10.21;12.54;12.0
45312;PMS7003;68267;51.540;5.854;2023-11-22T05:22:10;14.29;16.25;15.27
45312;PMS7003;68267;51.540;5.854;2023-11-22T05:35:32;19.69;19.74;17.01
45312;PMS7003;68267;51.540;5.854;2023-11-22T05:48:52;13.81;15.81;15.27
45312;PMS7003;68267;51.540;5.854;2023-11-22T06:02:11;15.73;16.9;15.71
45312;PMS7003;68267;51.540;5.854;2023-11-22T06:15:31;19.33;18.76;16.25
45312;PMS7003;68267;51.540;5.854;2023-11-22T06:28:51;14.77;16.69;15.38
45312;PMS7003;68267;51.540;5.854;2023-11-22T06:42:10;14.05;16.03;15.27
45312;PMS7003;68267;51.540;5.854;2023-11-22T06:55:30;16.33;18.1;15.49
45312;PMS7003;68267;51.540;5.854;2023-11-22T07:08:50;15.97;16.69;15.92
45312;PMS7003;68267;51.540;5.854;2023-11-22T07:22:09;16.21;17.45;15.38
45312;PMS7003;68267;51.540;5.854;2023-11-22T07:35:29;13.81;15.81;14.94
45312;PMS7003;68267;51.540;5.854;2023-11-22T07:48:49;16.33;17.01;15.81
45312;PMS7003;68267;51.540;5.854;2023-11-22T08:02:08;16.57;18.32;16.9
45312;PMS7003;68267;51.540;5.854;2023-11-22T08:15:28;20.77;22.14;18.76
45312;PMS7003;68267;51.540;5.854;2023-11-22T08:28:50;21.49;22.46;19.41
45312;PMS7003;68267;51.540;5.854;2023-11-22T08:42:10;22.21;23.44;19.3
45312;PMS7003;68267;51.540;5.854;2023-11-22T08:55:29;22.69;23.88;20.5
45312;PMS7003;68267;51.540;5.854;2023-11-22T09:08:49;27.01;27.8;23.44
45312;PMS7003;68267;51.540;5.854;2023-11-22T09:22:09;25.93;26.82;23.01
45312;PMS7003;68267;51.540;5.854;2023-11-22T09:35:28;28.21;28.89;24.97
45312;PMS7003;68267;51.540;5.854;2023-11-22T09:48:48;28.81;29.44;26.93
45312;PMS7003;68267;51.540;5.854;2023-11-22T10:02:08;36.26;36.2;31.51
45312;PMS7003;68267;51.540;5.854;2023-11-22T10:15:27;30.61;31.07;27.8
45312;PMS7003;68267;51.540;5.854;2023-11-22T10:28:47;34.94;35.0;29.44
45312;PMS7003;68267;51.540;5.854;2023-11-22T10:42:06;32.17;32.49;28.02
45312;PMS7003;68267;51.540;5.854;2023-11-22T10:55:26;27.01;27.8;25.08
45312;PMS7003;68267;51.540;5.854;2023-11-22T11:08:46;26.77;27.59;25.41
45312;PMS7003;68267;51.540;5.854;2023-11-22T11:22:05;26.05;26.93;24.86
45312;PMS7003;68267;51.540;5.854;2023-11-22T11:35:25;26.17;26.06;23.55
45312;PMS7003;68267;51.540;5.854;2023-11-22T11:48:45;25.45;26.39;23.77
45312;PMS7003;68267;51.540;5.854;2023-11-22T12:02:04;23.05;23.23;21.7
45312;PMS7003;68267;51.540;5.854;2023-11-22T12:15:27;24.37;24.86;23.01
45312;PMS7003;68267;51.540;5.854;2023-11-22T12:28:46;25.33;25.19;23.12
45312;PMS7003;68267;51.540;5.854;2023-11-22T12:42:06;23.29;24.43;22.9
45312;PMS7003;68267;51.540;5.854;2023-11-22T12:55:26;25.21;26.17;23.88
45312;PMS7003;68267;51.540;5.854;2023-11-22T13:08:45;25.09;25.19;22.79
45312;PMS7003;68267;51.540;5.854;2023-11-22T13:22:05;26.05;26.93;24.86
45312;PMS7003;68267;51.540;5.854;2023-11-22T13:35:24;24.13;25.19;23.12
45312;PMS7003;68267;51.540;5.854;2023-11-22T13:48:44;23.89;24.97;22.68
45312;PMS7003;68267;51.540;5.854;2023-11-22T14:02:04;26.17;26.28;24.43
45312;PMS7003;68267;51.540;5.854;2023-11-22T14:15:23;22.57;23.77;21.05
45312;PMS7003;68267;51.540;5.854;2023-11-22T14:28:43;20.05;21.48;19.19
45312;PMS7003;68267;51.540;5.854;2023-11-22T14:42:03;21.49;22.79;20.39
45312;PMS7003;68267;51.540;5.854;2023-11-22T14:55:22;20.77;21.16;19.3
45312;PMS7003;68267;51.540;5.854;2023-11-22T15:08:42;20.29;20.94;18.87
45312;PMS7003;68267;51.540;5.854;2023-11-22T15:22:02;21.49;22.79;19.19
45312;PMS7003;68267;51.540;5.854;2023-11-22T15:35:21;18.97;20.5;18.87
45312;PMS7003;68267;51.540;5.854;2023-11-22T15:48:41;17.89;18.65;17.45
45312;PMS7003;68267;51.540;5.854;2023-11-22T16:02:00;21.01;22.35;19.08
45312;PMS7003;68267;51.540;5.854;2023-11-22T16:15:20;22.21;22.9;20.07
45312;PMS7003;68267;51.540;5.854;2023-11-22T16:28:40;24.13;24.86;21.81
45312;PMS7003;68267;51.540;5.854;2023-11-22T16:41:59;24.97;25.95;23.01
45312;PMS7003;68267;51.540;5.854;2023-11-22T16:55:22;27.01;27.8;24.53
45312;PMS7003;68267;51.540;5.854;2023-11-22T17:08:41;26.17;27.04;23.23
45312;PMS7003;68267;51.540;5.854;2023-11-22T17:22:01;26.17;27.04;23.77
45312;PMS7003;68267;51.540;5.854;2023-11-22T17:35:21;26.53;27.37;23.99
45312;PMS7003;68267;51.540;5.854;2023-11-22T17:48:40;23.53;24.64;21.7
45312;PMS7003;68267;51.540;5.854;2023-11-22T18:02:00;23.41;24.53;22.03
45312;PMS7003;68267;51.540;5.854;2023-11-22T18:15:20;20.41;21.81;20.5
45312;PMS7003;68267;51.540;5.854;2023-11-22T18:28:39;19.45;20.94;19.3
45312;PMS7003;68267;51.540;5.854;2023-11-22T18:41:59;19.57;20.39;18.76
45312;PMS7003;68267;51.540;5.854;2023-11-22T18:55:18;19.33;20.83;18.98
45312;PMS7003;68267;51.540;5.854;2023-11-22T19:08:41;18.85;20.39;18.98
45312;PMS7003;68267;51.540;5.854;2023-11-22T19:22:03;18.61;20.17;19.52
45312;PMS7003;68267;51.540;5.854;2023-11-22T19:35:22;18.85;19.3;18.21
45312;PMS7003;68267;51.540;5.854;2023-11-22T19:48:42;22.81;20.28;18.43
45312;PMS7003;68267;51.540;5.854;2023-11-22T20:02:02;16.69;18.43;17.12
45312;PMS7003;68267;51.540;5.854;2023-11-22T20:15:21;17.05;18.76;17.34
45312;PMS7003;68267;51.540;5.854;2023-11-22T20:28:41;15.25;17.12;15.92
45312;PMS7003;68267;51.540;5.854;2023-11-22T20:42:01;15.61;17.45;16.25
45312;PMS7003;68267;51.540;5.854;2023-11-22T20:55:20;16.81;18.54;17.01
45312;PMS7003;68267;51.540;5.854;2023-11-22T21:08:40;16.09;17.89;16.9
45312;PMS7003;68267;51.540;5.854;2023-11-22T21:22:00;16.33;18.1;17.01
45312;PMS7003;68267;51.540;5.854;2023-11-22T21:35:22;19.81;20.07;17.89
45312;PMS7003;68267;51.540;5.854;2023-11-22T21:48:41;17.65;19.3;18.21
45312;PMS7003;68267;51.540;5.854;2023-11-22T22:02:01;18.85;20.39;18.32
45312;PMS7003;68267;51.540;5.854;2023-11-22T22:15:21;20.53;20.83;18.87
45312;PMS7003;68267;51.540;5.854;2023-11-22T22:28:40;20.05;21.48;18.21
45312;PMS7003;68267;51.540;5.854;2023-11-22T22:42:00;19.93;21.37;18.54
45312;PMS7003;68267;51.540;5.854;2023-11-22T22:55:20;20.05;20.72;18.87
45312;PMS7003;68267;51.540;5.854;2023-11-22T23:08:39;19.93;21.37;18.32
45312;PMS7003;68267;51.540;5.854;2023-11-22T23:21:59;21.25;22.57;19.74
45312;PMS7003;68267;51.540;5.854;2023-11-22T23:35:19;22.33;23.55;20.28
45312;PMS7003;68267;51.540;5.854;2023-11-22T23:48:38;23.89;23.99;21.37
